Time,TemperatureF,DewpointF,PressureIn,WindDirection,WindDirectionDegrees,WindSpeedMPH,WindSpeedGustMPH,Humidity,HourlyPrecipIn,Conditions,Clouds,dailyrainin,SoftwareType,DateUTC
2013-05-04 00:04:00,45.5,41.9,29.97,NE,45,14.0,17.0,87,0.00,,,0.61,meteohub,2013-05-04 05:04:00,
2013-05-04 00:09:00,45.7,42.1,29.98,NE,45,11.0,15.0,87,0.00,,,0.00,meteohub,2013-05-04 05:09:00,
2013-05-04 00:14:00,45.7,42.1,29.98,NE,45,12.0,15.0,87,0.00,,,0.00,meteohub,2013-05-04 05:14:00,
2013-05-04 00:19:00,45.7,42.1,29.97,NE,45,13.0,14.0,87,0.00,,,0.00,meteohub,2013-05-04 05:19:00,
2013-05-04 00:24:00,45.7,41.7,29.97,NE,45,9.0,14.0,86,0.00,,,0.00,meteohub,2013-05-04 05:24:00,
2013-05-04 00:29:00,45.9,41.9,29.98,NE,45,11.0,14.0,86,0.00,,,0.00,meteohub,2013-05-04 05:29:00,
2013-05-04 00:34:00,45.9,41.9,29.97,NE,45,12.0,14.0,86,0.00,,,0.00,meteohub,2013-05-04 05:34:00,
2013-05-04 00:39:00,45.9,42.3,29.97,NE,45,11.0,14.0,87,0.00,,,0.00,meteohub,2013-05-04 05:39:00,
2013-05-04 00:44:00,45.9,41.9,29.98,NE,45,11.0,12.0,86,0.00,,,0.00,meteohub,2013-05-04 05:44:00,
2013-05-04 00:49:00,46.0,42.4,29.97,NE,45,14.0,14.0,87,0.00,,,0.00,meteohub,2013-05-04 05:49:00,
2013-05-04 00:54:00,46.0,42.1,29.97,East,90,11.0,12.0,86,0.00,,,0.00,meteohub,2013-05-04 05:54:00,
2013-05-04 01:00:00,46.2,42.3,29.97,NE,45,18.0,18.0,86,0.00,,,0.00,meteohub,2013-05-04 06:00:00,
2013-05-04 01:05:00,46.2,42.3,29.97,NE,45,18.0,18.0,86,0.00,,,0.00,meteohub,2013-05-04 06:05:00,
2013-05-04 01:10:00,46.4,42.4,29.97,NE,45,13.0,18.0,86,0.00,,,0.00,meteohub,2013-05-04 06:10:00,
2013-05-04 01:15:00,46.4,42.4,29.96,ENE,68,11.0,18.0,86,0.00,,,0.00,meteohub,2013-05-04 06:15:00,
2013-05-04 01:20:00,46.8,43.2,29.96,East,90,14.0,19.0,87,0.00,,,0.00,meteohub,2013-05-04 06:20:00,
2013-05-04 01:25:00,46.6,42.6,29.97,NE,45,13.0,19.0,86,0.00,,,0.00,meteohub,2013-05-04 06:25:00,
2013-05-04 01:30:00,46.6,42.6,29.96,NE,45,15.0,19.0,86,0.00,,,0.00,meteohub,2013-05-04 06:30:00,
2013-05-04 01:35:00,46.6,42.6,29.96,ENE,68,11.0,16.0,86,0.00,,,0.00,meteohub,2013-05-04 06:35:00,
2013-05-04 01:40:00,46.6,42.6,29.96,NE,45,13.0,16.0,86,0.00,,,0.00,meteohub,2013-05-04 06:40:00,
2013-05-04 01:45:00,46.9,43.0,29.96,NE,45,13.0,16.0,86,0.00,,,0.00,meteohub,2013-05-04 06:45:00,
2013-05-04 01:50:00,46.8,42.8,29.96,NE,45,14.0,19.0,86,0.00,,,0.00,meteohub,2013-05-04 06:50:00,
2013-05-04 01:55:00,46.9,42.6,29.96,NE,45,11.0,19.0,85,0.00,,,0.00,meteohub,2013-05-04 06:55:00,
2013-05-04 02:00:00,46.9,42.6,29.96,NE,45,12.0,15.0,85,0.00,,,0.00,meteohub,2013-05-04 07:00:00,
2013-05-04 02:05:00,46.9,42.6,29.96,NE,45,12.0,15.0,85,0.00,,,0.00,meteohub,2013-05-04 07:05:00,
2013-05-04 02:10:00,47.1,42.3,29.96,NE,45,11.0,12.0,83,0.00,,,0.00,meteohub,2013-05-04 07:10:00,
2013-05-04 02:15:00,47.1,41.9,29.96,ENE,68,14.0,14.0,82,0.00,,,0.00,meteohub,2013-05-04 07:15:00,
2013-05-04 02:20:00,47.1,41.9,29.96,NE,45,14.0,14.0,82,0.00,,,0.00,meteohub,2013-05-04 07:20:00,
2013-05-04 02:25:00,47.1,41.9,29.96,NE,45,14.0,14.0,82,0.00,,,0.00,meteohub,2013-05-04 07:25:00,
2013-05-04 02:31:00,47.1,41.9,29.95,NE,45,11.0,15.0,82,0.00,,,0.00,meteohub,2013-05-04 07:31:00,
2013-05-04 02:36:00,47.3,42.1,29.95,NE,45,13.0,15.0,82,0.00,,,0.00,meteohub,2013-05-04 07:36:00,
2013-05-04 02:41:00,47.5,41.9,29.96,NE,45,14.0,15.0,81,0.00,,,0.00,meteohub,2013-05-04 07:41:00,
2013-05-04 02:46:00,47.3,41.7,29.96,East,90,11.0,16.0,81,0.00,,,0.00,meteohub,2013-05-04 07:46:00,
2013-05-04 02:51:00,47.3,41.7,29.97,East,90,9.0,16.0,81,0.00,,,0.00,meteohub,2013-05-04 07:51:00,
2013-05-04 02:56:00,47.3,41.7,29.97,East,90,8.0,14.0,81,0.00,,,0.00,meteohub,2013-05-04 07:56:00,
2013-05-04 03:01:00,47.3,41.7,29.97,East,90,6.0,11.0,81,0.00,,,0.00,meteohub,2013-05-04 08:01:00,
2013-05-04 03:06:00,47.3,41.7,29.98,East,90,6.0,10.0,81,0.00,,,0.00,meteohub,2013-05-04 08:06:00,
2013-05-04 03:11:00,47.3,41.7,29.97,East,90,6.0,9.0,81,0.00,,,0.00,meteohub,2013-05-04 08:11:00,
2013-05-04 03:16:00,47.3,42.1,29.97,East,90,4.0,8.0,82,0.00,,,0.00,meteohub,2013-05-04 08:16:00,
2013-05-04 03:21:00,47.3,42.1,29.97,East,90,4.0,6.0,82,0.00,,,0.00,meteohub,2013-05-04 08:21:00,
2013-05-04 03:26:00,47.3,42.1,29.97,ENE,68,8.0,8.0,82,0.00,,,0.00,meteohub,2013-05-04 08:26:00,
2013-05-04 03:31:00,47.1,41.9,29.97,East,90,8.0,9.0,82,0.00,,,0.00,meteohub,2013-05-04 08:31:00,
2013-05-04 03:36:00,47.1,41.9,29.97,NE,45,8.0,9.0,82,0.00,,,0.00,meteohub,2013-05-04 08:36:00,
2013-05-04 03:41:00,46.9,41.7,29.98,East,90,8.0,9.0,82,0.00,,,0.00,meteohub,2013-05-04 08:41:00,
2013-05-04 03:46:00,46.6,41.4,29.97,NE,45,9.0,9.0,82,0.00,,,0.00,meteohub,2013-05-04 08:46:00,
2013-05-04 03:51:00,46.4,41.2,29.98,ENE,68,8.0,9.0,82,0.00,,,0.00,meteohub,2013-05-04 08:51:00,
2013-05-04 03:56:00,46.4,41.2,29.98,NE,45,8.0,9.0,82,0.00,,,0.00,meteohub,2013-05-04 08:56:00,
2013-05-04 04:01:00,46.2,41.0,29.97,NE,45,8.0,9.0,82,0.00,,,0.00,meteohub,2013-05-04 09:01:00,
2013-05-04 04:07:00,46.2,41.0,29.97,NE,45,8.0,9.0,82,0.00,,,0.00,meteohub,2013-05-04 09:07:00,
2013-05-04 04:12:00,46.2,41.4,29.97,NE,45,11.0,11.0,83,0.00,,,0.00,meteohub,2013-05-04 09:12:00,
2013-05-04 04:17:00,46.2,41.4,29.97,NE,45,10.0,11.0,83,0.00,,,0.00,meteohub,2013-05-04 09:17:00,
2013-05-04 04:22:00,46.0,41.2,29.96,NE,45,8.0,11.0,83,0.00,,,0.00,meteohub,2013-05-04 09:22:00,
2013-05-04 04:27:00,46.2,41.4,29.97,NE,45,8.0,11.0,83,0.00,,,0.00,meteohub,2013-05-04 09:27:00,
2013-05-04 04:32:00,46.2,41.4,29.97,NE,45,10.0,10.0,83,0.00,,,0.00,meteohub,2013-05-04 09:32:00,
2013-05-04 04:37:00,46.2,41.4,29.96,NNE,23,10.0,11.0,83,0.00,,,0.00,meteohub,2013-05-04 09:37:00,
2013-05-04 04:42:00,46.2,41.4,29.96,NE,45,11.0,13.0,83,0.00,,,0.00,meteohub,2013-05-04 09:42:00,
2013-05-04 04:47:00,46.0,41.2,29.96,NE,45,11.0,13.0,83,0.00,,,0.00,meteohub,2013-05-04 09:47:00,
2013-05-04 04:52:00,46.0,41.2,29.96,North,0,10.0,12.0,83,0.00,,,0.00,meteohub,2013-05-04 09:52:00,
2013-05-04 04:57:00,46.0,41.2,29.97,NE,45,8.0,11.0,83,0.00,,,0.00,meteohub,2013-05-04 09:57:00,
2013-05-04 05:02:00,46.0,41.2,29.97,NE,45,8.0,11.0,83,0.00,,,0.00,meteohub,2013-05-04 10:02:00,
2013-05-04 05:07:00,45.9,41.0,29.97,NE,45,6.0,11.0,83,0.00,,,0.00,meteohub,2013-05-04 10:07:00,
2013-05-04 05:12:00,45.9,41.0,29.97,NE,45,7.0,11.0,83,0.00,,,0.00,meteohub,2013-05-04 10:12:00,
2013-05-04 05:17:00,45.9,41.0,29.97,NE,45,7.0,8.0,83,0.00,,,0.00,meteohub,2013-05-04 10:17:00,
2013-05-04 05:22:00,45.9,41.0,29.98,NE,45,7.0,7.0,83,0.00,,,0.00,meteohub,2013-05-04 10:22:00,
2013-05-04 05:27:00,45.9,41.0,29.97,NE,45,7.0,7.0,83,0.00,,,0.00,meteohub,2013-05-04 10:27:00,
2013-05-04 05:32:00,45.9,41.5,29.97,NE,45,8.0,8.0,85,0.00,,,0.00,meteohub,2013-05-04 10:32:00,
2013-05-04 05:37:00,45.9,41.0,29.97,NE,45,8.0,8.0,83,0.00,,,0.00,meteohub,2013-05-04 10:37:00,
2013-05-04 05:42:00,45.7,40.8,29.98,NE,45,8.0,9.0,83,0.00,,,0.00,meteohub,2013-05-04 10:42:00,
2013-05-04 05:47:00,45.9,41.4,29.97,NE,45,8.0,9.0,84,0.00,,,0.00,meteohub,2013-05-04 10:47:00,
2013-05-04 05:52:00,46.0,41.5,29.97,NE,45,11.0,11.0,84,0.00,,,0.00,meteohub,2013-05-04 10:52:00,
2013-05-04 05:57:00,46.0,41.5,29.97,NE,45,10.0,11.0,84,0.00,,,0.00,meteohub,2013-05-04 10:57:00,
2013-05-04 06:02:00,46.0,41.5,29.98,NE,45,11.0,11.0,84,0.00,,,0.00,meteohub,2013-05-04 11:02:00,
2013-05-04 06:07:00,46.0,41.5,29.98,NE,45,12.0,12.0,84,0.00,,,0.00,meteohub,2013-05-04 11:07:00,
2013-05-04 06:12:00,46.0,41.5,29.98,ENE,68,12.0,13.0,84,0.00,,,0.00,meteohub,2013-05-04 11:12:00,
2013-05-04 06:17:00,46.0,41.5,29.98,NE,45,12.0,13.0,84,0.00,,,0.00,meteohub,2013-05-04 11:17:00,
2013-05-04 06:22:00,46.2,41.7,29.98,NE,45,12.0,13.0,84,0.00,,,0.00,meteohub,2013-05-04 11:22:00,
2013-05-04 06:27:00,46.2,41.7,29.98,NE,45,11.0,13.0,84,0.00,,,0.00,meteohub,2013-05-04 11:27:00,
2013-05-04 06:32:00,46.4,41.5,29.97,NE,45,11.0,13.0,83,0.00,,,0.00,meteohub,2013-05-04 11:32:00,
2013-05-04 06:37:00,46.4,41.5,29.97,NE,45,12.0,13.0,83,0.00,,,0.00,meteohub,2013-05-04 11:37:00,
2013-05-04 06:42:00,46.6,41.7,29.97,NE,45,11.0,14.0,83,0.00,,,0.00,meteohub,2013-05-04 11:42:00,
2013-05-04 06:47:00,46.6,41.7,29.98,NE,45,13.0,14.0,83,0.00,,,0.00,meteohub,2013-05-04 11:47:00,
2013-05-04 06:52:00,46.8,41.9,29.98,NE,45,12.0,14.0,83,0.00,,,0.00,meteohub,2013-05-04 11:52:00,
2013-05-04 06:57:00,46.8,41.5,29.98,NE,45,11.0,14.0,82,0.00,,,0.00,meteohub,2013-05-04 11:57:00,
2013-05-04 07:02:00,46.8,41.5,29.98,NE,45,11.0,14.0,82,0.00,,,0.00,meteohub,2013-05-04 12:02:00,
2013-05-04 07:07:00,46.9,41.7,29.99,NE,45,8.0,14.0,82,0.00,,,0.00,meteohub,2013-05-04 12:07:00,
2013-05-04 07:12:00,47.1,41.9,29.99,NE,45,9.0,14.0,82,0.00,,,0.00,meteohub,2013-05-04 12:12:00,
2013-05-04 07:17:00,47.3,42.1,29.99,NE,45,11.0,12.0,82,0.00,,,0.00,meteohub,2013-05-04 12:17:00,
2013-05-04 07:22:00,47.5,41.9,29.99,NE,45,11.0,11.0,81,0.00,,,0.00,meteohub,2013-05-04 12:22:00,
2013-05-04 07:27:00,47.7,42.1,29.99,NE,45,10.0,11.0,81,0.00,,,0.00,meteohub,2013-05-04 12:27:00,
2013-05-04 07:32:00,47.8,41.9,29.99,NE,45,12.0,12.0,80,0.00,,,0.00,meteohub,2013-05-04 12:32:00,
2013-05-04 07:37:00,48.0,42.1,29.99,NE,45,13.0,15.0,80,0.00,,,0.00,meteohub,2013-05-04 12:37:00,
2013-05-04 07:42:00,48.2,42.3,29.99,NE,45,12.0,15.0,80,0.00,,,0.00,meteohub,2013-05-04 12:42:00,
2013-05-04 07:47:00,48.6,42.3,29.99,NE,45,11.0,15.0,79,0.00,,,0.00,meteohub,2013-05-04 12:47:00,
2013-05-04 07:52:00,48.9,42.4,29.99,NE,45,11.0,14.0,78,0.00,,,0.00,meteohub,2013-05-04 12:52:00,
2013-05-04 07:57:00,49.5,42.6,30.00,ENE,68,11.0,13.0,77,0.00,,,0.00,meteohub,2013-05-04 12:57:00,
2013-05-04 08:02:00,49.6,42.8,29.99,ENE,68,11.0,13.0,77,0.00,,,0.00,meteohub,2013-05-04 13:02:00,
2013-05-04 08:04:00,49.8,42.6,29.99,ENE,68,12.0,13.0,76,0.00,,,0.00,meteohub,2013-05-04 13:04:00,
2013-05-04 08:09:00,50.4,43.2,29.99,NE,45,13.0,14.0,76,0.00,,,0.00,meteohub,2013-05-04 13:09:00,
2013-05-04 08:14:00,50.9,43.3,30.00,NE,45,13.0,14.0,75,0.00,,,0.00,meteohub,2013-05-04 13:14:00,
2013-05-04 08:19:00,51.3,43.3,30.00,NE,45,13.0,14.0,74,0.00,,,0.00,meteohub,2013-05-04 13:19:00,
2013-05-04 08:24:00,51.6,43.3,30.00,East,90,15.0,15.0,73,0.00,,,0.00,meteohub,2013-05-04 13:24:00,
2013-05-04 08:30:00,52.0,43.5,30.00,NE,45,11.0,15.0,73,0.00,,,0.00,meteohub,2013-05-04 13:30:00,
2013-05-04 08:35:00,52.5,43.7,30.00,NE,45,11.0,15.0,72,0.00,,,0.00,meteohub,2013-05-04 13:35:00,
2013-05-04 08:40:00,53.2,44.1,30.00,East,90,11.0,15.0,71,0.00,,,0.00,meteohub,2013-05-04 13:40:00,
2013-05-04 08:45:00,53.1,43.5,30.01,NE,45,11.0,15.0,70,0.00,,,0.00,meteohub,2013-05-04 13:45:00,
2013-05-04 08:50:00,53.2,43.7,30.01,NE,45,15.0,15.0,70,0.00,,,0.00,meteohub,2013-05-04 13:50:00,
2013-05-04 08:55:00,52.9,43.3,30.01,NE,45,13.0,15.0,70,0.00,,,0.00,meteohub,2013-05-04 13:55:00,
2013-05-04 09:00:00,52.5,43.0,30.00,East,90,12.0,15.0,70,0.00,,,0.00,meteohub,2013-05-04 14:00:00,
2013-05-04 09:05:00,52.5,43.0,30.01,East,90,11.0,15.0,70,0.00,,,0.00,meteohub,2013-05-04 14:05:00,
2013-05-04 09:10:00,52.9,43.7,30.01,NE,45,15.0,15.0,71,0.00,,,0.00,meteohub,2013-05-04 14:10:00,
2013-05-04 09:15:00,53.1,43.5,30.01,NE,45,10.0,15.0,70,0.00,,,0.00,meteohub,2013-05-04 14:15:00,
2013-05-04 09:20:00,53.1,43.5,30.01,East,90,11.0,15.0,70,0.00,,,0.00,meteohub,2013-05-04 14:20:00,
2013-05-04 09:25:00,52.9,43.3,30.01,NE,45,14.0,15.0,70,0.00,,,0.00,meteohub,2013-05-04 14:25:00,
2013-05-04 09:30:00,53.1,43.9,30.01,NE,45,10.0,14.0,71,0.00,,,0.00,meteohub,2013-05-04 14:30:00,
2013-05-04 09:35:00,53.6,44.4,30.01,NE,45,9.0,14.0,71,0.00,,,0.00,meteohub,2013-05-04 14:35:00,
2013-05-04 09:40:00,54.0,44.4,30.01,NE,45,9.0,14.0,70,0.00,,,0.00,meteohub,2013-05-04 14:40:00,
2013-05-04 09:45:00,54.0,44.1,30.01,NE,45,11.0,11.0,69,0.00,,,0.00,meteohub,2013-05-04 14:45:00,
2013-05-04 09:50:00,54.0,44.4,30.01,NE,45,11.0,11.0,70,0.00,,,0.00,meteohub,2013-05-04 14:50:00,
2013-05-04 09:56:00,54.0,44.8,30.02,East,90,8.0,11.0,71,0.00,,,0.00,meteohub,2013-05-04 14:56:00,
2013-05-04 10:01:00,54.0,44.8,30.02,NE,45,8.0,11.0,71,0.00,,,0.00,meteohub,2013-05-04 15:01:00,
2013-05-04 10:06:00,54.0,44.8,30.02,ENE,68,8.0,11.0,71,0.00,,,0.00,meteohub,2013-05-04 15:06:00,
2013-05-04 10:11:00,54.0,44.8,30.02,East,90,7.0,10.0,71,0.00,,,0.00,meteohub,2013-05-04 15:11:00,
2013-05-04 10:16:00,54.0,44.8,30.02,East,90,8.0,10.0,71,0.00,,,0.00,meteohub,2013-05-04 15:16:00,
2013-05-04 10:21:00,54.1,45.3,30.03,East,90,7.0,8.0,72,0.00,,,0.00,meteohub,2013-05-04 15:21:00,
2013-05-04 10:26:00,54.1,45.3,30.04,East,90,7.0,8.0,72,0.00,,,0.00,meteohub,2013-05-04 15:26:00,
2013-05-04 10:31:00,54.1,45.3,30.04,East,90,8.0,8.0,72,0.00,,,0.00,meteohub,2013-05-04 15:31:00,
2013-05-04 10:36:00,53.8,45.3,30.04,East,90,6.0,8.0,73,0.00,,,0.00,meteohub,2013-05-04 15:36:00,
2013-05-04 10:41:00,53.6,45.5,30.04,NE,45,7.0,9.0,74,0.01,,,0.01,meteohub,2013-05-04 15:41:00,
2013-05-04 10:46:00,53.4,45.3,30.04,East,90,9.0,11.0,74,0.01,,,0.01,meteohub,2013-05-04 15:46:00,
2013-05-04 10:51:00,53.1,45.7,30.04,NE,45,11.0,11.0,76,0.02,,,0.02,meteohub,2013-05-04 15:51:00,
2013-05-04 10:56:00,52.9,46.2,30.04,NE,45,11.0,11.0,78,0.04,,,0.04,meteohub,2013-05-04 15:56:00,
2013-05-04 11:01:00,52.9,46.6,30.03,NE,45,11.0,11.0,79,0.05,,,0.05,meteohub,2013-05-04 16:01:00,
2013-05-04 11:06:00,52.7,46.8,30.03,NE,45,11.0,13.0,80,0.07,,,0.07,meteohub,2013-05-04 16:06:00,
2013-05-04 11:11:00,52.5,46.9,30.02,NE,45,15.0,15.0,81,0.07,,,0.07,meteohub,2013-05-04 16:11:00,
2013-05-04 11:16:00,52.5,47.1,30.02,NE,45,17.0,17.0,82,0.07,,,0.07,meteohub,2013-05-04 16:16:00,
2013-05-04 11:21:00,52.7,47.3,30.02,NE,45,14.0,17.0,82,0.08,,,0.08,meteohub,2013-05-04 16:21:00,
2013-05-04 11:26:00,52.9,47.8,30.02,NE,45,15.0,17.0,83,0.08,,,0.08,meteohub,2013-05-04 16:26:00,
2013-05-04 11:32:00,53.2,48.6,30.02,NE,45,16.0,17.0,84,0.09,,,0.09,meteohub,2013-05-04 16:32:00,
2013-05-04 11:37:00,54.3,49.8,30.02,NE,45,15.0,17.0,85,0.09,,,0.11,meteohub,2013-05-04 16:37:00,
2013-05-04 11:42:00,55.2,50.5,30.03,NE,45,11.0,17.0,84,0.09,,,0.11,meteohub,2013-05-04 16:42:00,
2013-05-04 11:47:00,55.4,50.4,30.03,ENE,68,10.0,17.0,83,0.08,,,0.11,meteohub,2013-05-04 16:47:00,
2013-05-04 11:52:00,55.4,50.0,30.03,ENE,68,7.0,15.0,82,0.07,,,0.11,meteohub,2013-05-04 16:52:00,
2013-05-04 11:57:00,55.6,50.2,30.03,East,90,6.0,15.0,82,0.06,,,0.11,meteohub,2013-05-04 16:57:00,
2013-05-04 12:02:00,55.6,49.8,30.03,NE,45,8.0,10.0,81,0.05,,,0.11,meteohub,2013-05-04 17:02:00,
2013-05-04 12:07:00,55.4,49.6,30.02,ENE,68,11.0,11.0,81,0.04,,,0.11,meteohub,2013-05-04 17:07:00,
2013-05-04 12:12:00,55.2,49.8,30.02,NE,45,9.0,11.0,82,0.04,,,0.11,meteohub,2013-05-04 17:12:00,
2013-05-04 12:17:00,55.4,50.4,30.03,NE,45,9.0,11.0,83,0.02,,,0.11,meteohub,2013-05-04 17:17:00,
2013-05-04 12:22:00,55.2,50.2,30.02,NE,45,10.0,11.0,83,0.04,,,0.12,meteohub,2013-05-04 17:22:00,
2013-05-04 12:27:00,55.6,51.1,30.02,NE,45,8.0,11.0,85,0.02,,,0.12,meteohub,2013-05-04 17:27:00,
2013-05-04 12:32:00,55.9,51.3,30.02,NE,45,9.0,10.0,84,0.02,,,0.12,meteohub,2013-05-04 17:32:00,
2013-05-04 12:37:00,56.3,51.3,30.02,NE,45,8.0,10.0,83,0.01,,,0.12,meteohub,2013-05-04 17:37:00,
2013-05-04 12:42:00,56.5,51.4,30.03,NE,45,10.0,10.0,83,0.01,,,0.12,meteohub,2013-05-04 17:42:00,
2013-05-04 12:47:00,56.7,51.6,30.03,NE,45,10.0,11.0,83,0.01,,,0.12,meteohub,2013-05-04 17:47:00,
2013-05-04 12:52:00,56.5,51.1,30.03,ENE,68,9.0,11.0,82,0.01,,,0.12,meteohub,2013-05-04 17:52:00,
2013-05-04 12:57:00,56.3,50.9,30.03,NE,45,5.0,11.0,82,0.01,,,0.12,meteohub,2013-05-04 17:57:00,
2013-05-04 13:02:00,56.3,51.3,30.03,East,90,5.0,10.0,83,0.01,,,0.12,meteohub,2013-05-04 18:02:00,
2013-05-04 13:07:00,56.3,51.3,30.03,NE,45,4.0,10.0,83,0.01,,,0.12,meteohub,2013-05-04 18:07:00,
2013-05-04 13:12:00,56.1,51.1,30.03,NE,45,4.0,7.0,83,0.01,,,0.12,meteohub,2013-05-04 18:12:00,
2013-05-04 13:17:00,56.3,51.3,30.02,NE,45,4.0,6.0,83,0.02,,,0.13,meteohub,2013-05-04 18:17:00,
2013-05-04 13:22:00,57.2,52.3,30.02,North,0,4.0,6.0,84,0.01,,,0.13,meteohub,2013-05-04 18:22:00,
2013-05-04 13:27:00,57.6,52.5,30.02,NNE,23,8.0,8.0,83,0.01,,,0.13,meteohub,2013-05-04 18:27:00,
2013-05-04 13:32:00,57.9,52.7,30.02,NE,45,11.0,11.0,83,0.01,,,0.13,meteohub,2013-05-04 18:32:00,
2013-05-04 13:37:00,57.4,52.0,30.02,NE,45,14.0,15.0,82,0.01,,,0.13,meteohub,2013-05-04 18:37:00,
2013-05-04 13:42:00,57.7,52.7,30.01,NE,45,11.0,15.0,83,0.01,,,0.13,meteohub,2013-05-04 18:42:00,
2013-05-04 13:47:00,58.5,53.1,30.01,NE,45,12.0,15.0,82,0.01,,,0.13,meteohub,2013-05-04 18:47:00,
2013-05-04 13:52:00,58.5,52.7,30.00,NE,45,8.0,15.0,81,0.01,,,0.13,meteohub,2013-05-04 18:52:00,
2013-05-04 13:57:00,59.0,52.5,30.01,North,0,10.0,15.0,79,0.01,,,0.13,meteohub,2013-05-04 18:57:00,
2013-05-04 14:02:00,59.5,53.4,30.00,North,0,11.0,14.0,80,0.01,,,0.13,meteohub,2013-05-04 19:02:00,
2013-05-04 14:07:00,60.4,53.2,30.00,North,0,10.0,13.0,77,0.01,,,0.13,meteohub,2013-05-04 19:07:00,
2013-05-04 14:12:00,61.0,53.1,30.00,North,0,10.0,11.0,75,0.01,,,0.13,meteohub,2013-05-04 19:12:00,
2013-05-04 14:17:00,61.7,54.5,30.00,North,0,10.0,11.0,77,0.00,,,0.13,meteohub,2013-05-04 19:17:00,
2013-05-04 14:22:00,61.9,54.3,30.00,WSW,248,10.0,11.0,76,0.00,,,0.13,meteohub,2013-05-04 19:22:00,
2013-05-04 14:27:00,61.9,53.8,30.00,NE,45,12.0,13.0,75,0.00,,,0.13,meteohub,2013-05-04 19:27:00,
2013-05-04 14:32:00,61.9,53.4,30.00,NE,45,13.0,14.0,74,0.00,,,0.13,meteohub,2013-05-04 19:32:00,
2013-05-04 14:37:00,61.7,54.1,30.00,NE,45,11.0,14.0,76,0.00,,,0.13,meteohub,2013-05-04 19:37:00,
2013-05-04 14:42:00,61.9,53.4,30.00,NNE,23,13.0,14.0,74,0.00,,,0.13,meteohub,2013-05-04 19:42:00,
2013-05-04 14:47:00,62.1,53.6,30.00,NE,45,13.0,16.0,74,0.00,,,0.13,meteohub,2013-05-04 19:47:00,
2013-05-04 14:52:00,62.2,53.1,30.00,NE,45,15.0,16.0,72,0.00,,,0.13,meteohub,2013-05-04 19:52:00,
2013-05-04 14:57:00,62.1,51.8,30.00,NE,45,17.0,17.0,69,0.00,,,0.13,meteohub,2013-05-04 19:57:00,
2013-05-04 15:02:00,61.9,52.0,30.00,NE,45,14.0,17.0,70,0.00,,,0.13,meteohub,2013-05-04 20:02:00,
2013-05-04 15:07:00,62.2,52.0,30.00,NE,45,13.0,17.0,69,0.00,,,0.13,meteohub,2013-05-04 20:07:00,
2013-05-04 15:12:00,62.6,52.3,30.00,NE,45,16.0,17.0,69,0.00,,,0.13,meteohub,2013-05-04 20:12:00,
2013-05-04 15:17:00,63.0,53.1,30.00,NE,45,12.0,16.0,70,0.00,,,0.13,meteohub,2013-05-04 20:17:00,
2013-05-04 15:22:00,64.0,53.6,30.00,NNE,23,11.0,16.0,69,0.00,,,0.13,meteohub,2013-05-04 20:22:00,
2013-05-04 15:27:00,64.9,53.2,29.99,NE,45,9.0,16.0,66,0.00,,,0.13,meteohub,2013-05-04 20:27:00,
2013-05-04 15:32:00,65.1,52.7,30.00,NNE,23,11.0,17.0,64,0.00,,,0.13,meteohub,2013-05-04 20:32:00,
2013-05-04 15:37:00,66.0,54.0,29.99,NE,45,12.0,17.0,65,0.00,,,0.13,meteohub,2013-05-04 20:37:00,
2013-05-04 15:42:00,66.9,54.0,29.99,NE,45,13.0,17.0,63,0.00,,,0.13,meteohub,2013-05-04 20:42:00,
2013-05-04 15:47:00,67.1,50.4,29.99,NE,45,17.0,18.0,55,0.00,,,0.13,meteohub,2013-05-04 20:47:00,
2013-05-04 15:52:00,66.7,51.1,29.99,East,90,11.0,19.0,57,0.00,,,0.13,meteohub,2013-05-04 20:52:00,
2013-05-04 15:57:00,66.2,48.6,29.99,NE,45,19.0,21.0,53,0.00,,,0.13,meteohub,2013-05-04 20:57:00,
2013-05-04 16:02:00,66.0,48.9,29.99,NE,45,16.0,21.0,54,0.00,,,0.13,meteohub,2013-05-04 21:02:00,
2013-05-04 16:07:00,66.4,49.3,29.99,NE,45,16.0,21.0,54,0.00,,,0.13,meteohub,2013-05-04 21:07:00,
2013-05-04 16:12:00,66.7,50.0,29.99,East,90,15.0,22.0,55,0.00,,,0.13,meteohub,2013-05-04 21:12:00,
2013-05-04 16:17:00,67.1,49.5,29.99,NE,45,19.0,22.0,53,0.00,,,0.13,meteohub,2013-05-04 21:17:00,
2013-05-04 16:22:00,68.0,49.6,29.99,East,90,19.0,22.0,52,0.00,,,0.13,meteohub,2013-05-04 21:22:00,
2013-05-04 16:27:00,68.0,49.3,29.99,East,90,15.0,21.0,51,0.00,,,0.13,meteohub,2013-05-04 21:27:00,
2013-05-04 16:32:00,67.8,49.6,29.99,NE,45,12.0,21.0,52,0.00,,,0.13,meteohub,2013-05-04 21:32:00,
2013-05-04 16:37:00,67.8,50.5,29.99,NE,45,11.0,21.0,54,0.00,,,0.13,meteohub,2013-05-04 21:37:00,
2013-05-04 16:42:00,67.6,49.5,29.99,NE,45,14.0,21.0,52,0.00,,,0.13,meteohub,2013-05-04 21:42:00,
2013-05-04 16:47:00,67.5,49.8,29.99,NE,45,14.0,17.0,53,0.00,,,0.13,meteohub,2013-05-04 21:47:00,
2013-05-04 16:52:00,67.8,48.0,29.99,NE,45,18.0,18.0,49,0.00,,,0.13,meteohub,2013-05-04 21:52:00,
2013-05-04 16:57:00,68.0,49.3,29.99,ENE,68,16.0,18.0,51,0.00,,,0.13,meteohub,2013-05-04 21:57:00,
2013-05-04 17:02:00,68.4,47.3,29.99,East,90,15.0,18.0,47,0.00,,,0.13,meteohub,2013-05-04 22:02:00,
2013-05-04 17:07:00,68.5,48.0,29.99,ENE,68,15.0,18.0,48,0.00,,,0.13,meteohub,2013-05-04 22:07:00,
2013-05-04 17:12:00,68.7,47.1,29.99,NE,45,17.0,18.0,46,0.00,,,0.13,meteohub,2013-05-04 22:12:00,
2013-05-04 17:17:00,68.5,46.9,29.99,NE,45,16.0,20.0,46,0.00,,,0.13,meteohub,2013-05-04 22:17:00,
2013-05-04 17:22:00,68.7,45.3,29.99,East,90,14.0,20.0,43,0.00,,,0.13,meteohub,2013-05-04 22:22:00,
2013-05-04 17:27:00,68.9,46.0,29.99,East,90,10.0,20.0,44,0.00,,,0.13,meteohub,2013-05-04 22:27:00,
2013-05-04 17:32:00,69.1,45.0,29.99,NE,45,17.0,17.0,42,0.00,,,0.13,meteohub,2013-05-04 22:32:00,
2013-05-04 17:37:00,69.1,45.7,29.99,NE,45,18.0,18.0,43,0.00,,,0.13,meteohub,2013-05-04 22:37:00,
2013-05-04 17:42:00,68.5,45.7,29.99,East,90,15.0,18.0,44,0.00,,,0.13,meteohub,2013-05-04 22:42:00,
2013-05-04 17:47:00,68.4,45.7,29.99,East,90,17.0,18.0,44,0.00,,,0.13,meteohub,2013-05-04 22:47:00,
2013-05-04 17:52:00,68.5,44.6,29.99,East,90,16.0,18.0,42,0.00,,,0.13,meteohub,2013-05-04 22:52:00,
2013-05-04 17:57:00,68.5,44.6,29.99,East,90,15.0,17.0,42,0.00,,,0.13,meteohub,2013-05-04 22:57:00,
2013-05-04 18:02:00,68.4,44.4,29.99,SE,135,13.0,18.0,42,0.00,,,0.13,meteohub,2013-05-04 23:02:00,
2013-05-04 18:07:00,68.4,43.7,29.99,East,90,17.0,18.0,41,0.00,,,0.13,meteohub,2013-05-04 23:07:00,
2013-05-04 18:12:00,68.0,43.3,30.00,East,90,15.0,17.0,41,0.00,,,0.13,meteohub,2013-05-04 23:12:00,
2013-05-04 18:17:00,67.8,43.3,29.99,ESE,113,17.0,18.0,41,0.00,,,0.13,meteohub,2013-05-04 23:17:00,
2013-05-04 18:22:00,67.3,42.8,30.00,East,90,16.0,18.0,41,0.00,,,0.13,meteohub,2013-05-04 23:22:00,
2013-05-04 18:27:00,67.1,43.2,30.00,SE,135,14.0,18.0,42,0.00,,,0.13,meteohub,2013-05-04 23:27:00,
2013-05-04 18:32:00,66.9,43.2,30.00,East,90,15.0,18.0,42,0.00,,,0.13,meteohub,2013-05-04 23:32:00,
2013-05-04 18:37:00,66.4,44.4,30.00,East,90,8.0,18.0,45,0.00,,,0.13,meteohub,2013-05-04 23:37:00,
2013-05-04 18:42:00,66.0,44.1,30.00,SE,135,8.0,15.0,45,0.00,,,0.13,meteohub,2013-05-04 23:42:00,
2013-05-04 18:47:00,66.0,44.6,30.01,East,90,11.0,15.0,46,0.00,,,0.13,meteohub,2013-05-04 23:47:00,
2013-05-04 18:52:00,65.7,44.2,30.00,East,90,9.0,13.0,46,0.00,,,0.13,meteohub,2013-05-04 23:52:00,
2013-05-04 18:57:00,65.3,44.6,30.01,East,90,8.0,11.0,47,0.00,,,0.13,meteohub,2013-05-04 23:57:00,
2013-05-04 19:02:00,65.1,45.0,30.01,East,90,11.0,11.0,48,0.00,,,0.13,meteohub,2013-05-05 00:02:00,
2013-05-04 19:07:00,64.6,44.4,30.01,East,90,9.0,11.0,48,0.00,,,0.13,meteohub,2013-05-05 00:07:00,
2013-05-04 19:12:00,64.0,43.3,30.01,East,90,11.0,11.0,47,0.00,,,0.13,meteohub,2013-05-05 00:12:00,
2013-05-04 19:17:00,63.7,43.7,30.01,East,90,10.0,12.0,48,0.00,,,0.13,meteohub,2013-05-05 00:17:00,
2013-05-04 19:22:00,62.8,42.8,30.01,East,90,9.0,12.0,48,0.00,,,0.13,meteohub,2013-05-05 00:22:00,
2013-05-04 19:27:00,62.4,43.0,30.01,East,90,8.0,12.0,49,0.00,,,0.13,meteohub,2013-05-05 00:27:00,
2013-05-04 19:32:00,62.1,43.2,30.01,East,90,8.0,11.0,50,0.00,,,0.13,meteohub,2013-05-05 00:32:00,
2013-05-04 19:37:00,61.5,43.2,30.01,East,90,6.0,11.0,51,0.00,,,0.13,meteohub,2013-05-05 00:37:00,
2013-05-04 19:42:00,61.2,43.3,30.01,East,90,5.0,10.0,52,0.00,,,0.13,meteohub,2013-05-05 00:42:00,
2013-05-04 19:47:00,61.0,43.2,30.02,East,90,5.0,8.0,52,0.00,,,0.13,meteohub,2013-05-05 00:47:00,
2013-05-04 19:52:00,60.8,43.0,30.02,East,90,5.0,8.0,52,0.00,,,0.13,meteohub,2013-05-05 00:52:00,
2013-05-04 19:57:00,60.8,43.0,30.02,East,90,4.0,8.0,52,0.00,,,0.13,meteohub,2013-05-05 00:57:00,
2013-05-04 20:02:00,60.6,43.3,30.02,East,90,4.0,6.0,53,0.00,,,0.13,meteohub,2013-05-05 01:02:00,
2013-05-04 20:07:00,60.4,43.2,30.02,East,90,4.0,6.0,53,0.00,,,0.13,meteohub,2013-05-05 01:07:00,
2013-05-04 20:12:00,60.4,43.2,30.02,East,90,4.0,6.0,53,0.00,,,0.13,meteohub,2013-05-05 01:12:00,
2013-05-04 20:17:00,60.4,43.2,30.02,East,90,4.0,5.0,53,0.00,,,0.13,meteohub,2013-05-05 01:17:00,
2013-05-04 20:22:00,60.6,43.0,30.03,East,90,3.0,4.0,52,0.00,,,0.13,meteohub,2013-05-05 01:22:00,
2013-05-04 20:27:00,60.8,43.0,30.02,East,90,2.0,4.0,52,0.00,,,0.13,meteohub,2013-05-05 01:27:00,
2013-05-04 20:32:00,60.8,42.6,30.03,East,90,3.0,4.0,51,0.00,,,0.13,meteohub,2013-05-05 01:32:00,
2013-05-04 20:37:00,61.2,43.0,30.03,East,90,4.0,4.0,51,0.00,,,0.13,meteohub,2013-05-05 01:37:00,
2013-05-04 20:42:00,61.3,43.0,30.03,East,90,4.0,5.0,51,0.00,,,0.13,meteohub,2013-05-05 01:42:00,
2013-05-04 20:47:00,61.2,43.0,30.03,East,90,4.0,5.0,51,0.00,,,0.13,meteohub,2013-05-05 01:47:00,
2013-05-04 20:52:00,61.2,43.0,30.03,East,90,4.0,5.0,51,0.00,,,0.13,meteohub,2013-05-05 01:52:00,
2013-05-04 20:57:00,61.0,42.8,30.03,NE,45,4.0,4.0,51,0.00,,,0.13,meteohub,2013-05-05 01:57:00,
2013-05-04 21:02:00,60.8,42.6,30.03,NE,45,4.0,4.0,51,0.00,,,0.13,meteohub,2013-05-05 02:02:00,
2013-05-04 21:07:00,60.8,42.6,30.03,NE,45,4.0,4.0,51,0.00,,,0.13,meteohub,2013-05-05 02:07:00,
2013-05-04 21:12:00,60.6,41.9,30.03,NE,45,4.0,4.0,50,0.00,,,0.13,meteohub,2013-05-05 02:12:00,
2013-05-04 21:17:00,60.8,42.1,30.03,NE,45,4.0,4.0,50,0.00,,,0.13,meteohub,2013-05-05 02:17:00,
2013-05-04 21:22:00,60.6,41.9,30.03,NE,45,4.0,4.0,50,0.00,,,0.13,meteohub,2013-05-05 02:22:00,
2013-05-04 21:27:00,60.6,41.9,30.03,NE,45,4.0,4.0,50,0.00,,,0.13,meteohub,2013-05-05 02:27:00,
2013-05-04 21:32:00,60.8,42.1,30.04,East,90,4.0,4.0,50,0.00,,,0.13,meteohub,2013-05-05 02:32:00,
2013-05-04 21:37:00,61.0,42.3,30.04,NE,45,3.0,4.0,50,0.00,,,0.13,meteohub,2013-05-05 02:37:00,
2013-05-04 21:42:00,61.0,42.3,30.04,NE,45,2.0,4.0,50,0.00,,,0.13,meteohub,2013-05-05 02:42:00,
2013-05-04 21:47:00,61.0,42.3,30.04,NE,45,2.0,4.0,50,0.00,,,0.13,meteohub,2013-05-05 02:47:00,
2013-05-04 21:52:00,60.8,42.1,30.04,NE,45,6.0,6.0,50,0.00,,,0.13,meteohub,2013-05-05 02:52:00,
2013-05-04 21:57:00,60.8,42.6,30.04,NE,45,5.0,8.0,51,0.00,,,0.13,meteohub,2013-05-05 02:57:00,
2013-05-04 22:02:00,60.8,42.6,30.04,NE,45,6.0,8.0,51,0.00,,,0.13,meteohub,2013-05-05 03:02:00,
2013-05-04 22:07:00,60.8,42.6,30.04,NE,45,6.0,8.0,51,0.00,,,0.13,meteohub,2013-05-05 03:07:00,
2013-05-04 22:12:00,60.6,42.4,30.04,NE,45,6.0,7.0,51,0.00,,,0.13,meteohub,2013-05-05 03:12:00,
2013-05-04 22:17:00,60.6,42.4,30.04,North,0,7.0,7.0,51,0.00,,,0.13,meteohub,2013-05-05 03:17:00,
2013-05-04 22:22:00,60.4,42.8,30.04,NE,45,6.0,8.0,52,0.00,,,0.13,meteohub,2013-05-05 03:22:00,
2013-05-04 22:27:00,60.3,42.6,30.04,NE,45,8.0,8.0,52,0.00,,,0.13,meteohub,2013-05-05 03:27:00,
2013-05-04 22:32:00,60.3,43.0,30.04,NE,45,8.0,8.0,53,0.00,,,0.13,meteohub,2013-05-05 03:32:00,
2013-05-04 22:37:00,60.3,43.0,30.04,NE,45,8.0,9.0,53,0.00,,,0.13,meteohub,2013-05-05 03:37:00,
2013-05-04 22:42:00,60.1,43.0,30.04,NE,45,8.0,9.0,53,0.00,,,0.13,meteohub,2013-05-05 03:42:00,
2013-05-04 22:47:00,60.1,43.0,30.04,NE,45,6.0,9.0,53,0.00,,,0.13,meteohub,2013-05-05 03:47:00,
2013-05-04 22:52:00,60.1,43.0,30.04,NE,45,6.0,9.0,53,0.00,,,0.13,meteohub,2013-05-05 03:52:00,
2013-05-04 22:57:00,59.9,43.2,30.04,NE,45,5.0,9.0,54,0.00,,,0.13,meteohub,2013-05-05 03:57:00,
2013-05-04 23:01:00,59.7,43.0,30.04,NE,45,5.0,9.0,54,0.00,,,0.13,meteohub,2013-05-05 04:01:00,
2013-05-04 23:02:00,59.5,42.8,30.04,NE,45,5.0,9.0,54,0.00,,,0.13,meteohub,2013-05-05 04:02:00,
2013-05-04 23:03:00,59.5,42.8,30.04,NE,45,5.0,9.0,54,0.00,,,0.13,meteohub,2013-05-05 04:03:00,
2013-05-04 23:07:00,59.4,43.2,30.04,NE,45,4.0,7.0,55,0.00,,,0.13,meteohub,2013-05-05 04:07:00,
2013-05-04 23:13:00,59.2,43.0,30.04,NE,45,4.0,5.0,55,0.00,,,0.13,meteohub,2013-05-05 04:13:00,
2013-05-04 23:18:00,59.0,43.3,30.04,NE,45,4.0,5.0,56,0.00,,,0.13,meteohub,2013-05-05 04:18:00,
2013-05-04 23:23:00,58.6,43.5,30.04,NE,45,4.0,5.0,57,0.00,,,0.13,meteohub,2013-05-05 04:23:00,
2013-05-04 23:28:00,58.5,43.3,30.04,NE,45,4.0,5.0,57,0.00,,,0.13,meteohub,2013-05-05 04:28:00,
2013-05-04 23:33:00,58.3,43.2,30.05,NE,45,4.0,4.0,57,0.00,,,0.13,meteohub,2013-05-05 04:33:00,
2013-05-04 23:38:00,58.1,43.0,30.05,NE,45,2.0,4.0,57,0.00,,,0.13,meteohub,2013-05-05 04:38:00,
2013-05-04 23:43:00,58.1,43.3,30.04,NE,45,3.0,4.0,58,0.00,,,0.13,meteohub,2013-05-05 04:43:00,
2013-05-04 23:48:00,58.1,43.0,30.05,NE,45,2.0,4.0,57,0.00,,,0.13,meteohub,2013-05-05 04:48:00,
2013-05-04 23:53:00,58.1,43.0,30.05,East,90,0.0,3.0,57,0.00,,,0.13,meteohub,2013-05-05 04:53:00,
2013-05-04 23:58:00,58.1,43.0,30.05,East,90,0.0,3.0,57,0.00,,,0.13,meteohub,2013-05-05 04:58:00,